Impacts METAR Board
IDs:

KPKV - Port Lavaca/Calhoun, TX, US

Updated at: 1300 UTC 14 Dec 2019
Potential Impact None Slight Moderate High
Time 14/01Z 14/02Z 14/03Z 14/04Z 14/05Z 14/06Z 14/07Z 14/08Z 14/09Z 14/10Z 14/11Z 14/12Z 14/13Z
Temp67 65 60 58 58 55 53 50 51 49 49 47 46
Dewpt47 49 48 52 55 53 51 47 49 45 46 43 42
Altim29.84 29.84 29.85 29.87 29.87 29.87 29.87 29.87 29.86 29.87 29.85 29.86 29.87
VIS10 10 10 10 10 10 10 10 10 10 10 10 10
CIG-- -- -- -- -- -- -- -- -- -- -- -- --
CoverCLRCLRCLRCLRCLRCLRCLRCLRCLRCLRCLRCLRCLR
FltCatVFRVFRVFRVFRVFRVFRVFRVFRVFRVFRVFRVFRVFR
WX--------------------------
WDir24021019020020019022002500000
WSpd5 4 3 4 4 3 3 0 4 0 0 0 0
WGst-- -- -- -- -- -- -- -- -- -- -- -- --
Raw hourly METARs
KPKV 140055Z AUTO 24005KT 10SM CLR 20/09 A2984 RMK AO2 T01950086
KPKV 140155Z AUTO 21004KT 10SM CLR 19/09 A2984 RMK AO2 T01860093
KPKV 140255Z AUTO 19003KT 10SM CLR 15/09 A2985 RMK AO2 T01530087
KPKV 140355Z AUTO 20004KT 10SM CLR 15/11 A2987 RMK AO2 T01460111
KPKV 140455Z AUTO 20004KT 10SM CLR 15/13 A2987 RMK AO2 T01460128
KPKV 140555Z AUTO 19003KT 10SM CLR 13/12 A2987 RMK AO2 T01290116 10217 20129 402670108
KPKV 140700Z AUTO 22003KT 10SM CLR 12/10 A2987 RMK AO2 T01170104
KPKV 140755Z AUTO 00000KT 10SM CLR 10/08 A2987 RMK AO2 T00980083
KPKV 140855Z AUTO 25004KT 10SM CLR 11/09 A2986 RMK AO2 T01080094
KPKV 140955Z AUTO 00000KT 10SM CLR 10/07 A2987 RMK AO2 T00950072
KPKV 141100Z AUTO 00000KT 10SM CLR 10/08 A2985 RMK AO2 T00950080
KPKV 141155Z AUTO 00000KT 10SM CLR 09/06 A2986 RMK AO2 T00860061 10127 20080
KPKV 141300Z AUTO 00000KT 10SM CLR 08/05 A2987 RMK AO2 T00790054



Page loaded:  13:44 UTC  |   05:44 AM Pacific  |   06:44 AM Mountain  |   07:44 AM Central  |   08:44 AM Eastern

 

ADVISORIES

FORECASTS

FORECASTS

OBSERVATIONS

USER TOOLS

ABOUT US